Time;durP1;ratioP1;P1;durP2;ratioP2;P2;SDS_P1;SDS_P2;PMS_P1;PMS_P2;Temp;Humidity;BMP_temperature;BMP_pressure;BME280_temperature;BME280_humidity;BME280_pressure;Samples;Min_cycle;Max_cycle;Signal;HPM_P1;HPM_P2
2023/01/06 00:00:36;;;;;;;7.05;5.00;;;11.10;99.90;;;;;;5092766;28;20039;-70
2023/01/06 00:03:02;;;;;;;8.60;4.30;;;11.00;99.90;;;;;;5095628;28;20024;-69
2023/01/06 00:05:28;;;;;;;8.23;4.80;;;10.90;99.90;;;;;;5094846;28;20024;-69
2023/01/06 00:07:54;;;;;;;8.25;3.25;;;;;;;;;;5095209;28;20065;-69
2023/01/06 00:10:20;;;;;;;10.03;4.13;;;11.00;99.90;;;;;;5092961;28;20024;-69
2023/01/06 00:12:47;;;;;;;17.15;5.55;;;11.00;99.90;;;;;;5104284;28;20044;-69
2023/01/06 00:15:14;;;;;;;9.33;4.23;;;11.00;99.90;;;;;;5092039;28;20380;-69
2023/01/06 00:17:40;;;;;;;9.05;5.53;;;11.10;99.90;;;;;;5085229;28;20040;-69
2023/01/06 00:20:06;;;;;;;8.25;4.63;;;11.00;99.90;;;;;;5087125;28;20107;-70
2023/01/06 00:22:32;;;;;;;8.73;5.40;;;11.00;99.90;;;;;;5077331;28;20370;-70
2023/01/06 00:24:58;;;;;;;11.30;5.47;;;11.10;99.90;;;;;;5081856;28;20085;-70
2023/01/06 00:27:23;;;;;;;6.82;5.32;;;10.90;99.90;;;;;;5088748;28;20032;-70
2023/01/06 00:29:49;;;;;;;8.40;4.97;;;11.10;99.90;;;;;;5081046;28;20047;-70
2023/01/06 00:32:16;;;;;;;11.73;5.20;;;11.00;99.90;;;;;;5077867;28;20084;-71
2023/01/06 00:34:41;;;;;;;11.13;4.87;;;10.90;99.90;;;;;;5086464;28;20020;-70
2023/01/06 00:37:07;;;;;;;11.18;5.32;;;10.90;99.90;;;;;;5087933;28;20019;-70
2023/01/06 00:39:35;;;;;;;12.48;4.78;;;11.00;99.90;;;;;;5080012;28;20012;-70
2023/01/06 00:42:03;;;;;;;6.70;4.38;;;10.90;99.90;;;;;;5087565;28;20067;-70
2023/01/06 00:44:39;;;;;;;12.95;4.70;;;10.90;99.90;;;;;;5080025;28;20027;-70
2023/01/06 00:47:09;;;;;;;11.23;5.30;;;10.90;99.90;;;;;;5088649;28;20083;-70
2023/01/06 00:49:35;;;;;;;10.25;4.80;;;10.80;99.90;;;;;;5081609;28;20031;-70
2023/01/06 00:52:00;;;;;;;7.30;4.97;;;10.90;99.90;;;;;;5089535;28;20024;-69
2023/01/06 00:54:26;;;;;;;10.90;4.93;;;11.00;99.90;;;;;;5084519;28;20032;-70
2023/01/06 00:56:55;;;;;;;7.03;4.23;;;10.90;99.90;;;;;;5088837;28;20017;-70
2023/01/06 00:59:22;;;;;;;7.77;4.37;;;10.90;99.90;;;;;;5080041;28;20074;-70
2023/01/06 01:01:51;;;;;;;7.07;4.47;;;11.10;99.90;;;;;;5087446;28;20024;-70
2023/01/06 01:04:17;;;;;;;6.67;4.17;;;11.00;99.90;;;;;;5077014;28;20032;-70
2023/01/06 01:06:45;;;;;;;11.43;4.80;;;11.00;99.90;;;;;;5080415;28;20089;-70
2023/01/06 01:09:22;;;;;;;11.83;5.47;;;11.10;99.90;;;;;;5084862;28;20039;-70
2023/01/06 01:14:38;;;;;;;8.85;5.40;;;10.70;99.90;;;;;;5089399;28;20054;-70
2023/01/06 01:17:04;;;;;;;10.03;4.57;;;11.10;99.90;;;;;;5091595;28;20365;-70
2023/01/06 01:19:30;;;;;;;9.10;5.87;;;11.00;99.90;;;;;;5089327;28;20020;-70
2023/01/06 01:21:56;;;;;;;8.63;4.30;;;11.00;99.90;;;;;;5079938;28;20032;-69
2023/01/06 01:24:22;;;;;;;4.83;4.10;;;10.90;99.90;;;;;;5086605;28;20077;-70
2023/01/06 01:26:47;;;;;;;7.93;4.90;;;10.90;99.90;;;;;;5090568;28;20063;-69
2023/01/06 01:29:16;;;;;;;6.85;4.45;;;10.90;99.90;;;;;;5078182;28;20088;-69
2023/01/06 01:31:42;;;;;;;6.47;4.17;;;;;;;;;;5090589;28;20043;-70
2023/01/06 01:34:10;;;;;;;6.93;3.90;;;11.10;99.90;;;;;;5086180;28;20153;-70
2023/01/06 01:36:36;;;;;;;8.23;4.60;;;10.90;99.90;;;;;;5089959;28;20397;-69
2023/01/06 01:39:01;;;;;;;7.57;4.20;;;10.90;99.90;;;;;;5089383;28;20028;-70
2023/01/06 01:41:29;;;;;;;3.83;3.42;;;11.20;99.90;;;;;;5087493;28;20040;-70
2023/01/06 01:44:00;;;;;;;10.43;4.53;;;11.40;99.90;;;;;;5090141;28;20056;-70
2023/01/06 01:46:42;;;;;;;8.40;5.07;;;11.00;99.90;;;;;;5090162;28;20457;-70
2023/01/06 01:49:18;;;;;;;10.53;6.10;;;11.00;99.90;;;;;;5078277;28;20059;-70
2023/01/06 01:51:46;;;;;;;5.82;4.32;;;10.90;99.90;;;;;;5089554;28;20029;-70
2023/01/06 01:54:15;;;;;;;6.20;4.33;;;11.20;99.90;;;;;;5090330;28;20028;-70
2023/01/06 01:56:45;;;;;;;6.17;3.80;;;11.10;99.90;;;;;;5088568;28;20031;-70
2023/01/06 01:59:26;;;;;;;7.30;3.97;;;11.00;99.90;;;;;;5089705;28;20024;-70
2023/01/06 02:01:52;;;;;;;10.43;4.80;;;10.90;99.90;;;;;;5088154;28;20024;-70
2023/01/06 02:04:19;;;;;;;10.88;3.33;;;11.00;99.90;;;;;;5089610;28;20052;-70
2023/01/06 02:06:49;;;;;;;7.10;3.53;;;10.90;99.90;;;;;;5089892;28;20074;-70
2023/01/06 02:09:40;;;;;;;3.35;2.30;;;11.00;99.90;;;;;;5088733;28;20023;-69
2023/01/06 02:12:07;;;;;;;5.03;3.20;;;10.90;99.90;;;;;;5048792;28;20040;-70
2023/01/06 02:14:33;;;;;;;3.57;2.50;;;11.00;99.90;;;;;;5089978;28;20012;-69
2023/01/06 02:17:29;;;;;;;3.20;2.30;;;11.20;99.90;;;;;;5089951;28;20031;-69
2023/01/06 02:20:01;;;;;;;7.40;2.40;;;11.10;99.90;;;;;;5077827;28;20080;-69
2023/01/06 02:22:32;;;;;;;4.22;1.90;;;11.10;99.90;;;;;;5088376;28;20036;-70
2023/01/06 02:25:15;;;;;;;6.93;2.47;;;11.10;99.90;;;;;;5070656;28;20016;-70
2023/01/06 02:27:59;;;;;;;4.05;2.22;;;10.90;99.90;;;;;;5070228;28;20040;-70
2023/01/06 02:31:06;;;;;;;4.57;2.13;;;11.10;99.90;;;;;;5069929;28;20058;-70
2023/01/06 02:33:43;;;;;;;7.38;1.92;;;11.00;99.90;;;;;;4988528;28;20046;-69
2023/01/06 02:36:35;;;;;;;4.93;1.67;;;11.00;99.90;;;;;;5000750;28;20129;-69
2023/01/06 02:39:12;;;;;;;5.32;1.70;;;11.00;99.90;;;;;;4997228;28;20418;-70
2023/01/06 02:41:42;;;;;;;7.13;2.43;;;11.10;99.90;;;;;;5018332;28;20045;-70
2023/01/06 02:44:35;;;;;;;8.10;2.10;;;11.10;99.90;;;;;;4988571;28;20031;-70
2023/01/06 02:47:06;;;;;;;3.50;1.47;;;11.00;99.90;;;;;;4988118;28;20173;-70
2023/01/06 02:50:02;;;;;;;5.43;2.73;;;10.80;99.90;;;;;;4988637;28;20049;-70
2023/01/06 02:52:57;;;;;;;4.90;2.23;;;11.00;99.90;;;;;;4988646;28;20391;-69
2023/01/06 02:55:37;;;;;;;8.43;2.08;;;11.00;99.90;;;;;;4963072;28;20031;-69
2023/01/06 02:58:09;;;;;;;8.32;2.30;;;11.00;99.90;;;;;;4968805;28;20058;-69
2023/01/06 03:00:39;;;;;;;6.60;2.22;;;10.90;99.90;;;;;;4968452;28;20054;-70
2023/01/06 03:03:12;;;;;;;4.50;2.07;;;10.90;99.90;;;;;;4968793;28;20038;-69
2023/01/06 03:05:40;;;;;;;5.97;2.27;;;11.00;99.90;;;;;;4961980;28;20030;-71
2023/01/06 03:08:15;;;;;;;8.77;2.30;;;10.90;99.90;;;;;;4968641;28;20027;-70
2023/01/06 03:10:42;;;;;;;4.30;2.50;;;11.30;99.90;;;;;;5036554;28;20044;-70
2023/01/06 03:13:16;;;;;;;5.70;1.87;;;10.90;99.90;;;;;;5067239;28;20037;-70
2023/01/06 03:15:41;;;;;;;5.28;2.60;;;10.90;99.90;;;;;;5067193;28;20033;-70
2023/01/06 03:18:07;;;;;;;4.83;2.17;;;11.00;99.90;;;;;;5067093;28;20082;-70
2023/01/06 03:20:33;;;;;;;7.73;2.47;;;10.50;99.90;;;;;;5067256;28;20031;-70
2023/01/06 03:22:59;;;;;;;7.00;2.90;;;10.90;99.90;;;;;;5068145;28;20455;-70
2023/01/06 03:25:25;;;;;;;6.55;2.20;;;;;;;;;;5070972;28;20063;-70
2023/01/06 03:27:50;;;;;;;6.60;2.97;;;10.80;99.90;;;;;;5071022;28;20098;-70
2023/01/06 03:30:16;;;;;;;2.97;1.80;;;10.80;99.90;;;;;;5069814;28;20477;-70
2023/01/06 03:32:45;;;;;;;8.73;2.33;;;10.90;99.90;;;;;;5072740;28;20036;-70
2023/01/06 03:35:37;;;;;;;6.97;1.67;;;11.00;99.90;;;;;;5073325;28;20109;-70
2023/01/06 03:38:26;;;;;;;2.90;2.07;;;11.00;99.90;;;;;;5073487;28;20477;-70
2023/01/06 03:41:07;;;;;;;2.80;1.67;;;10.90;99.90;;;;;;5073944;28;20045;-70
2023/01/06 03:43:57;;;;;;;5.27;1.90;;;11.00;99.90;;;;;;5077885;28;20099;-70
2023/01/06 03:46:28;;;;;;;3.37;1.43;;;11.00;99.90;;;;;;5073505;28;20027;-69
2023/01/06 03:49:15;;;;;;;4.00;1.60;;;11.00;99.90;;;;;;5074267;28;20142;-69
2023/01/06 03:51:55;;;;;;;4.07;1.83;;;10.40;99.90;;;;;;5073890;28;20048;-70
2023/01/06 03:54:39;;;;;;;1.63;1.50;;;10.80;99.90;;;;;;5073554;28;20111;-69
2023/01/06 03:57:17;;;;;;;5.60;2.05;;;10.90;99.90;;;;;;5073494;28;20535;-70
2023/01/06 04:00:09;;;;;;;4.17;1.30;;;11.40;99.90;;;;;;5074122;28;20037;-69
2023/01/06 04:02:38;;;;;;;4.47;1.90;;;10.70;99.90;;;;;;5073048;28;20540;-69
2023/01/06 04:05:17;;;;;;;6.50;2.03;;;11.00;99.90;;;;;;5075930;28;20023;-70
2023/01/06 04:07:43;;;;;;;4.30;1.40;;;10.80;99.90;;;;;;5078488;28;20103;-70
2023/01/06 04:10:10;;;;;;;3.03;1.20;;;10.80;99.90;;;;;;5072924;28;20101;-70
2023/01/06 04:12:39;;;;;;;2.97;1.20;;;11.00;99.90;;;;;;5072039;28;20025;-70
2023/01/06 04:15:12;;;;;;;3.80;1.23;;;10.90;99.90;;;;;;5090541;28;20488;-70
2023/01/06 04:17:39;;;;;;;2.70;1.27;;;10.90;99.90;;;;;;5090701;28;20496;-70
2023/01/06 04:20:06;;;;;;;2.67;1.20;;;10.90;99.90;;;;;;5091416;28;20064;-70
2023/01/06 04:22:32;;;;;;;4.35;1.58;;;10.90;99.90;;;;;;5090108;28;20028;-70
2023/01/06 04:24:58;;;;;;;3.80;1.43;;;11.10;99.90;;;;;;5092226;28;20024;-70
2023/01/06 04:27:23;;;;;;;6.82;1.00;;;11.00;99.90;;;;;;5089139;28;20073;-69
2023/01/06 04:29:49;;;;;;;3.53;1.42;;;11.00;99.90;;;;;;5081164;28;20031;-69
2023/01/06 04:32:14;;;;;;;5.78;1.23;;;11.00;99.90;;;;;;5091675;28;20495;-70
2023/01/06 04:34:40;;;;;;;4.25;0.90;;;11.00;99.90;;;;;;5091285;28;20079;-70
2023/01/06 04:37:05;;;;;;;3.20;1.03;;;10.90;99.90;;;;;;5078049;28;20040;-70
2023/01/06 04:39:31;;;;;;;4.72;1.02;;;;;;;;;;5091932;28;20028;-70
2023/01/06 04:41:57;;;;;;;6.73;1.00;;;11.00;99.90;;;;;;5090560;28;20106;-70
2023/01/06 04:44:22;;;;;;;3.85;1.00;;;11.00;99.90;;;;;;5090593;28;20012;-70
2023/01/06 04:46:48;;;;;;;4.93;1.55;;;10.90;99.90;;;;;;5091086;28;20024;-69
2023/01/06 04:49:13;;;;;;;3.10;1.70;;;11.00;99.90;;;;;;5090749;28;20027;-70
2023/01/06 04:51:39;;;;;;;3.75;1.55;;;;;;;;;;5090834;28;20028;-70
2023/01/06 04:54:05;;;;;;;4.70;1.10;;;11.10;99.90;;;;;;5092009;28;20039;-70
2023/01/06 04:56:30;;;;;;;1.93;1.00;;;11.00;99.90;;;;;;5090529;28;20056;-70
2023/01/06 04:58:57;;;;;;;3.05;1.27;;;11.00;99.90;;;;;;5091760;28;20024;-69
2023/01/06 05:01:24;;;;;;;9.07;1.57;;;11.00;99.90;;;;;;5091106;28;20449;-69
2023/01/06 05:03:50;;;;;;;4.43;1.10;;;10.90;99.90;;;;;;5082159;28;20090;-69
2023/01/06 05:06:16;;;;;;;6.30;1.37;;;;;;;;;;5085015;28;20028;-70
2023/01/06 05:08:43;;;;;;;4.57;1.17;;;11.00;99.90;;;;;;5071692;28;20016;-69
2023/01/06 05:11:15;;;;;;;4.20;1.20;;;11.00;99.90;;;;;;5071282;28;20028;-69
2023/01/06 05:13:41;;;;;;;2.63;1.20;;;10.90;99.90;;;;;;5080263;28;20058;-69
2023/01/06 05:16:14;;;;;;;4.55;1.33;;;11.20;99.90;;;;;;5091614;28;20491;-69
2023/01/06 05:18:40;;;;;;;1.30;0.70;;;11.10;99.90;;;;;;5091521;28;20064;-69
2023/01/06 05:21:06;;;;;;;5.90;1.33;;;11.00;99.90;;;;;;5089801;28;20036;-69
2023/01/06 05:23:32;;;;;;;2.33;0.73;;;11.00;99.90;;;;;;5091304;28;20042;-69
2023/01/06 05:25:57;;;;;;;2.05;0.82;;;11.20;99.90;;;;;;5090319;28;20473;-69
2023/01/06 05:28:23;;;;;;;2.63;1.02;;;11.20;99.90;;;;;;5097988;28;20146;-69
2023/01/06 05:30:49;;;;;;;4.20;0.80;;;;;;;;;;5089835;28;20025;-69
2023/01/06 05:33:15;;;;;;;4.60;1.00;;;;;;;;;;5087430;28;20016;-69
2023/01/06 05:35:41;;;;;;;1.67;0.87;;;11.00;99.90;;;;;;5074745;28;20099;-69
2023/01/06 05:38:06;;;;;;;1.50;1.00;;;11.10;99.90;;;;;;5076517;28;20104;-69
2023/01/06 05:40:33;;;;;;;2.87;1.03;;;11.20;99.90;;;;;;5079601;28;20049;-69
2023/01/06 05:42:59;;;;;;;2.43;1.30;;;11.10;99.90;;;;;;5085785;28;20047;-69
2023/01/06 05:45:25;;;;;;;2.83;1.00;;;11.40;99.90;;;;;;5081754;28;20473;-69
2023/01/06 05:47:51;;;;;;;2.80;0.90;;;11.10;99.90;;;;;;5091115;28;20382;-69
2023/01/06 05:50:17;;;;;;;2.20;0.70;;;11.00;99.90;;;;;;5079440;28;20477;-69
2023/01/06 05:52:42;;;;;;;3.42;1.17;;;11.20;99.90;;;;;;5081173;28;20020;-69
2023/01/06 05:55:08;;;;;;;2.22;1.00;;;11.10;99.90;;;;;;5077275;28;20039;-69
2023/01/06 05:57:35;;;;;;;6.13;1.50;;;11.30;99.90;;;;;;5080138;28;20381;-69
2023/01/06 06:00:04;;;;;;;2.60;1.37;;;11.20;99.90;;;;;;5078435;28;20465;-69
2023/01/06 06:02:30;;;;;;;2.37;1.20;;;11.20;99.90;;;;;;5079359;28;20028;-69
2023/01/06 06:04:56;;;;;;;2.53;0.98;;;11.20;99.90;;;;;;5081870;28;20088;-69
2023/01/06 06:07:21;;;;;;;2.28;1.20;;;11.20;99.90;;;;;;5082044;28;20024;-69
2023/01/06 06:09:47;;;;;;;1.10;0.80;;;11.10;99.90;;;;;;5077087;28;20021;-69
2023/01/06 06:12:12;;;;;;;1.30;1.10;;;11.10;99.90;;;;;;5070366;28;20032;-69
2023/01/06 06:14:38;;;;;;;2.95;1.20;;;11.00;99.90;;;;;;5070315;28;20071;-69
2023/01/06 06:17:04;;;;;;;2.92;1.42;;;11.10;99.90;;;;;;5070638;28;20028;-69
2023/01/06 06:19:29;;;;;;;1.60;0.97;;;11.20;99.90;;;;;;5071266;28;20025;-70
2023/01/06 06:21:55;;;;;;;2.30;1.33;;;;;;;;;;5070839;28;20060;-70
2023/01/06 06:24:21;;;;;;;3.42;1.23;;;11.00;99.90;;;;;;5071166;28;20023;-70
2023/01/06 06:26:46;;;;;;;2.17;1.30;;;11.10;99.90;;;;;;5071134;28;20404;-70
2023/01/06 06:29:12;;;;;;;4.83;1.60;;;11.00;99.90;;;;;;5071989;28;20122;-69
2023/01/06 06:31:37;;;;;;;2.13;1.30;;;11.20;99.90;;;;;;5070939;28;20078;-70
2023/01/06 06:34:03;;;;;;;2.63;0.80;;;11.10;99.90;;;;;;5069991;28;20020;-69
2023/01/06 06:36:30;;;;;;;1.93;1.10;;;11.20;99.90;;;;;;5069994;28;20119;-69
2023/01/06 06:38:56;;;;;;;3.23;1.60;;;11.00;99.90;;;;;;5069600;28;20499;-69
2023/01/06 06:41:23;;;;;;;2.73;1.13;;;11.00;99.90;;;;;;5070284;28;20040;-69
2023/01/06 06:43:49;;;;;;;3.70;1.47;;;11.20;99.90;;;;;;5069306;28;20059;-69
2023/01/06 06:46:15;;;;;;;2.25;1.10;;;11.20;99.90;;;;;;5070120;28;20025;-71
2023/01/06 06:48:41;;;;;;;2.07;1.30;;;11.30;99.90;;;;;;5070406;28;20073;-69
2023/01/06 06:51:09;;;;;;;2.50;1.40;;;11.00;99.90;;;;;;5081112;28;20028;-69
2023/01/06 06:53:36;;;;;;;4.30;1.52;;;10.60;99.90;;;;;;5088967;28;20387;-70
2023/01/06 06:56:03;;;;;;;2.50;1.50;;;11.20;99.90;;;;;;5088391;28;20123;-70
2023/01/06 06:58:29;;;;;;;4.65;1.92;;;11.00;99.90;;;;;;5074871;28;20024;-70
2023/01/06 07:00:54;;;;;;;3.70;1.50;;;11.30;99.90;;;;;;5074336;28;20498;-69
2023/01/06 07:03:21;;;;;;;3.42;1.50;;;11.20;99.90;;;;;;5074860;28;20020;-70
2023/01/06 07:05:49;;;;;;;1.27;1.13;;;11.00;99.90;;;;;;5074677;28;20013;-70
2023/01/06 07:08:15;;;;;;;1.57;1.47;;;;;;;;;;5075045;28;20040;-70
2023/01/06 07:10:41;;;;;;;2.00;1.52;;;11.10;99.90;;;;;;5073499;28;20531;-70
2023/01/06 07:13:07;;;;;;;2.60;1.60;;;11.00;99.90;;;;;;5091998;28;20028;-70
2023/01/06 07:15:33;;;;;;;1.42;1.20;;;11.20;99.90;;;;;;5093549;28;20020;-69
2023/01/06 07:18:01;;;;;;;2.30;1.67;;;10.80;99.90;;;;;;5093067;28;20074;-70
2023/01/06 07:20:27;;;;;;;3.57;1.53;;;11.00;99.90;;;;;;5093221;28;20052;-68
2023/01/06 07:22:52;;;;;;;4.57;1.83;;;11.20;99.90;;;;;;5093454;28;20034;-69
2023/01/06 07:25:18;;;;;;;3.20;2.07;;;11.10;99.90;;;;;;5093316;28;20028;-69
2023/01/06 07:27:44;;;;;;;2.60;1.63;;;11.20;99.90;;;;;;5074719;28;20089;-69
2023/01/06 07:30:10;;;;;;;6.03;1.60;;;10.90;99.90;;;;;;5073558;28;20419;-69
2023/01/06 07:32:35;;;;;;;3.22;2.33;;;10.90;99.90;;;;;;5072972;28;20027;-70
2023/01/06 07:35:04;;;;;;;2.77;2.47;;;11.10;99.90;;;;;;5083677;28;20368;-69
2023/01/06 07:37:30;;;;;;;3.30;1.80;;;11.10;99.90;;;;;;5073661;28;20107;-69
2023/01/06 07:39:55;;;;;;;5.03;2.40;;;10.80;99.90;;;;;;5073298;28;20154;-69
2023/01/06 07:42:21;;;;;;;3.23;2.93;;;10.90;99.90;;;;;;5072824;28;20051;-69
2023/01/06 07:44:46;;;;;;;4.57;3.13;;;10.90;99.90;;;;;;5073391;28;20048;-69
2023/01/06 07:47:13;;;;;;;3.93;3.20;;;11.00;99.90;;;;;;5073713;28;20016;-70
2023/01/06 07:49:38;;;;;;;3.80;3.50;;;10.80;99.90;;;;;;5083017;28;20023;-70
2023/01/06 07:52:04;;;;;;;4.83;3.63;;;10.70;99.90;;;;;;5092760;28;20028;-70
2023/01/06 07:54:29;;;;;;;5.47;3.43;;;10.50;99.90;;;;;;5096133;28;20031;-71
2023/01/06 07:56:55;;;;;;;4.20;3.80;;;10.70;99.90;;;;;;5086760;28;20126;-70
2023/01/06 07:59:21;;;;;;;6.30;4.00;;;10.60;99.90;;;;;;5091400;28;20376;-71
2023/01/06 08:01:47;;;;;;;6.50;4.43;;;10.70;99.90;;;;;;5086551;28;20338;-71
2023/01/06 08:04:12;;;;;;;5.95;5.40;;;10.50;99.90;;;;;;5091200;28;20631;-71
2023/01/06 08:06:39;;;;;;;6.13;5.53;;;10.50;99.90;;;;;;5085909;28;20102;-71
2023/01/06 08:09:05;;;;;;;5.78;5.28;;;;;;;;;;5098466;28;20139;-71
2023/01/06 08:11:30;;;;;;;7.03;6.30;;;10.50;99.90;;;;;;5078472;28;20063;-71
2023/01/06 08:13:56;;;;;;;6.63;5.80;;;10.60;99.90;;;;;;5075264;28;20044;-71
2023/01/06 08:16:21;;;;;;;7.35;6.28;;;10.60;99.90;;;;;;5075452;28;20032;-71
2023/01/06 08:18:47;;;;;;;7.90;6.80;;;10.50;99.90;;;;;;5074200;28;20558;-70
2023/01/06 08:21:13;;;;;;;7.30;6.63;;;;;;;;;;5075569;28;20436;-71
2023/01/06 08:23:39;;;;;;;8.33;6.97;;;10.40;99.90;;;;;;5075088;28;20048;-71
2023/01/06 08:26:14;;;;;;;6.60;6.07;;;10.60;99.90;;;;;;5076179;28;20023;-71
2023/01/06 08:28:41;;;;;;;6.77;6.17;;;10.70;99.90;;;;;;5076761;28;20016;-71
2023/01/06 08:31:13;;;;;;;5.93;5.33;;;10.20;99.90;;;;;;5074065;28;20108;-70
2023/01/06 08:33:39;;;;;;;6.03;5.43;;;;;;;;;;5077359;28;20028;-71
2023/01/06 08:36:07;;;;;;;7.00;6.40;;;10.10;99.90;;;;;;5079915;28;20020;-71
2023/01/06 08:38:34;;;;;;;5.63;5.03;;;10.20;99.90;;;;;;5091139;28;20039;-70
2023/01/06 08:41:01;;;;;;;6.17;5.67;;;10.00;99.90;;;;;;5088840;28;20086;-71
2023/01/06 08:43:28;;;;;;;5.27;4.83;;;10.20;99.90;;;;;;5088230;28;20579;-71
2023/01/06 08:45:58;;;;;;;7.53;6.83;;;10.20;99.90;;;;;;5087293;28;20028;-71
2023/01/06 08:48:24;;;;;;;7.47;6.77;;;10.20;99.90;;;;;;5086301;28;20038;-71
2023/01/06 08:50:49;;;;;;;8.33;7.53;;;10.30;99.90;;;;;;5089448;28;20447;-71
2023/01/06 08:53:15;;;;;;;6.70;6.10;;;;;;;;;;5090279;28;20032;-71
2023/01/06 08:55:41;;;;;;;6.87;6.27;;;10.40;99.90;;;;;;5098626;28;20031;-71
2023/01/06 08:58:08;;;;;;;7.17;6.57;;;10.60;99.90;;;;;;5093794;28;20017;-71
2023/01/06 09:00:34;;;;;;;6.90;6.20;;;10.40;99.90;;;;;;5103437;28;20071;-69
2023/01/06 09:03:00;;;;;;;9.20;6.47;;;10.50;99.90;;;;;;5074982;28;20527;-69
2023/01/06 09:05:26;;;;;;;7.83;5.17;;;;;;;;;;5085516;28;20015;-69
2023/01/06 09:07:51;;;;;;;8.23;5.43;;;10.60;99.90;;;;;;5094944;28;20778;-69
2023/01/06 09:10:18;;;;;;;11.83;5.13;;;10.50;99.90;;;;;;5094043;28;20477;-69
2023/01/06 09:12:44;;;;;;;6.17;4.17;;;10.60;99.90;;;;;;5105065;28;20023;-69
2023/01/06 09:15:10;;;;;;;6.60;3.43;;;10.60;99.90;;;;;;5102551;28;20069;-69
2023/01/06 09:17:36;;;;;;;5.30;2.50;;;;;;;;;;5100556;28;20024;-69
2023/01/06 09:20:03;;;;;;;3.05;2.22;;;10.40;99.90;;;;;;5100388;28;20031;-69
2023/01/06 09:22:29;;;;;;;4.90;2.57;;;10.40;99.90;;;;;;5092591;28;20164;-70
2023/01/06 09:24:54;;;;;;;8.30;2.23;;;10.40;99.90;;;;;;5091082;28;20099;-69
2023/01/06 09:27:20;;;;;;;4.80;2.23;;;;;;;;;;5083643;28;20034;-69
2023/01/06 09:29:46;;;;;;;7.97;2.70;;;10.40;99.90;;;;;;5098978;28;20059;-69
2023/01/06 09:32:12;;;;;;;9.97;2.80;;;;;;;;;;5096426;28;20492;-69
2023/01/06 09:34:37;;;;;;;5.30;2.13;;;10.50;99.90;;;;;;5101578;28;20024;-67
2023/01/06 09:37:03;;;;;;;10.70;2.30;;;10.30;99.90;;;;;;5075382;28;20021;-68
2023/01/06 09:39:29;;;;;;;11.07;2.73;;;11.00;99.90;;;;;;5070844;28;20018;-68
2023/01/06 09:42:02;;;;;;;7.90;2.50;;;11.10;99.90;;;;;;5089714;28;20078;-68
2023/01/06 09:44:31;;;;;;;3.67;2.47;;;11.40;99.90;;;;;;5085639;28;20027;-69
2023/01/06 09:47:00;;;;;;;6.80;2.90;;;11.30;99.90;;;;;;5087786;28;20020;-68
2023/01/06 09:49:26;;;;;;;6.75;3.00;;;;;;;;;;5090603;28;20059;-68
2023/01/06 09:51:58;;;;;;;9.73;3.03;;;11.50;99.90;;;;;;5090730;28;20511;-69
2023/01/06 09:54:34;;;;;;;8.73;2.08;;;11.30;99.90;;;;;;5090926;28;20028;-68
2023/01/06 09:57:05;;;;;;;13.83;3.23;;;11.10;99.90;;;;;;5081178;28;20553;-67
2023/01/06 09:59:40;;;;;;;6.87;2.30;;;11.00;99.90;;;;;;5090674;28;20035;-67
2023/01/06 10:02:14;;;;;;;6.97;2.58;;;11.10;99.90;;;;;;5089914;28;20470;-68
2023/01/06 10:04:40;;;;;;;5.63;2.17;;;11.00;99.90;;;;;;5077537;28;20024;-67
2023/01/06 10:07:17;;;;;;;5.30;2.03;;;10.90;99.90;;;;;;5071106;28;20370;-67
2023/01/06 10:10:29;;;;;;;6.53;1.73;;;11.00;99.90;;;;;;5073671;28;20042;-68
2023/01/06 10:12:55;;;;;;;7.73;2.17;;;10.90;99.90;;;;;;5082776;28;20024;-67
2023/01/06 10:15:44;;;;;;;7.17;2.03;;;10.80;99.90;;;;;;5080527;28;20020;-68
2023/01/06 10:18:33;;;;;;;8.60;1.83;;;10.90;99.90;;;;;;5083506;28;20048;-68
2023/01/06 10:20:59;;;;;;;8.15;1.80;;;;;;;;;;5083693;28;20068;-68
2023/01/06 10:23:49;;;;;;;7.70;1.87;;;10.80;99.90;;;;;;5079659;28;20048;-69
2023/01/06 10:26:27;;;;;;;9.97;1.57;;;10.90;99.90;;;;;;5076579;28;20036;-68
2023/01/06 10:28:55;;;;;;;10.87;1.97;;;10.90;99.90;;;;;;5076330;28;20024;-68
2023/01/06 10:31:26;;;;;;;11.47;1.87;;;9.90;99.90;;;;;;5085867;28;20103;-68
2023/01/06 10:33:55;;;;;;;7.57;2.57;;;10.90;99.90;;;;;;5091973;28;20051;-67
2023/01/06 10:36:38;;;;;;;9.03;1.30;;;11.20;99.90;;;;;;5079080;28;20096;-67
2023/01/06 10:39:07;;;;;;;9.60;1.70;;;10.80;99.90;;;;;;5076112;28;20465;-68
2023/01/06 10:41:51;;;;;;;9.90;1.53;;;10.70;99.90;;;;;;5080046;28;20047;-67
2023/01/06 10:44:18;;;;;;;4.23;0.87;;;10.60;99.90;;;;;;5075344;28;20055;-69
2023/01/06 10:46:46;;;;;;;8.20;0.88;;;11.20;99.90;;;;;;5082089;28;20032;-68
2023/01/06 10:49:17;;;;;;;4.30;0.97;;;10.80;99.90;;;;;;5078798;28;20052;-68
2023/01/06 10:51:50;;;;;;;7.40;1.10;;;10.90;99.90;;;;;;5081145;28;20036;-67
2023/01/06 10:54:20;;;;;;;5.15;1.83;;;11.00;99.90;;;;;;5080718;28;20017;-67
2023/01/06 10:56:52;;;;;;;3.23;0.93;;;11.10;99.90;;;;;;5079501;28;20048;-67
2023/01/06 10:59:18;;;;;;;5.73;1.53;;;10.90;99.90;;;;;;5081484;28;20054;-67
2023/01/06 11:01:58;;;;;;;9.50;1.23;;;10.80;99.90;;;;;;5082030;28;20060;-67
2023/01/06 11:04:26;;;;;;;7.07;0.90;;;11.00;99.90;;;;;;5078843;28;20085;-67
2023/01/06 11:06:57;;;;;;;5.17;0.63;;;11.10;99.90;;;;;;5079646;28;20024;-67
2023/01/06 11:09:37;;;;;;;7.23;1.17;;;11.00;99.90;;;;;;5083387;28;20542;-67
2023/01/06 11:12:18;;;;;;;4.90;0.80;;;10.80;99.90;;;;;;5080223;28;20025;-67
2023/01/06 11:14:59;;;;;;;3.97;1.17;;;10.90;99.90;;;;;;5088001;28;20496;-67
2023/01/06 11:17:26;;;;;;;6.03;1.00;;;11.00;99.90;;;;;;5089302;28;20054;-67
2023/01/06 11:20:16;;;;;;;5.67;0.77;;;11.00;99.90;;;;;;5089740;28;20024;-67
2023/01/06 11:22:43;;;;;;;5.63;0.50;;;10.80;99.90;;;;;;5087495;28;20048;-67
2023/01/06 11:25:29;;;;;;;2.80;0.90;;;10.80;99.90;;;;;;5089241;28;20028;-67
2023/01/06 11:28:19;;;;;;;7.97;0.80;;;10.90;99.90;;;;;;5081491;28;20021;-67
2023/01/06 11:30:52;;;;;;;7.77;0.90;;;11.00;99.90;;;;;;5088713;28;20047;-66
2023/01/06 11:33:24;;;;;;;8.88;0.82;;;10.80;99.90;;;;;;5088854;28;20392;-67
2023/01/06 11:35:50;;;;;;;5.93;0.80;;;10.80;99.90;;;;;;5087868;28;20468;-67
2023/01/06 11:38:18;;;;;;;3.53;1.07;;;11.00;99.90;;;;;;5088382;28;20103;-67
2023/01/06 11:40:46;;;;;;;7.37;1.33;;;11.00;99.90;;;;;;5086497;28;20170;-68
2023/01/06 11:43:16;;;;;;;4.07;0.60;;;11.00;99.90;;;;;;5087427;28;20028;-67
2023/01/06 11:45:52;;;;;;;6.43;0.97;;;11.10;99.90;;;;;;5092213;28;20016;-68
2023/01/06 11:48:19;;;;;;;5.60;0.67;;;10.60;99.90;;;;;;5091642;28;20020;-67
2023/01/06 11:50:51;;;;;;;6.83;0.77;;;11.10;99.90;;;;;;5092918;28;20028;-67
2023/01/06 11:53:18;;;;;;;6.43;1.10;;;11.00;99.90;;;;;;5092437;28;20024;-67
2023/01/06 11:56:01;;;;;;;3.73;0.67;;;11.20;99.90;;;;;;5092566;28;20028;-67
2023/01/06 11:58:43;;;;;;;4.22;0.70;;;11.10;99.90;;;;;;5076163;28;20020;-67
2023/01/06 12:01:19;;;;;;;4.30;0.60;;;11.30;99.90;;;;;;5073173;28;20043;-67
2023/01/06 12:03:46;;;;;;;7.30;0.77;;;11.30;99.90;;;;;;5073105;28;20025;-67
2023/01/06 12:06:12;;;;;;;10.10;1.73;;;11.10;99.90;;;;;;5073300;28;20020;-67
2023/01/06 12:09:08;;;;;;;4.67;0.63;;;11.20;99.90;;;;;;5071669;28;20009;-67
2023/01/06 12:11:54;;;;;;;3.15;0.82;;;11.20;99.90;;;;;;5031471;28;20115;-67
2023/01/06 12:14:23;;;;;;;9.50;1.60;;;11.50;99.90;;;;;;5087518;28;20384;-67
2023/01/06 12:17:13;;;;;;;8.00;0.90;;;11.30;99.90;;;;;;5092487;28;20496;-67
2023/01/06 12:19:48;;;;;;;3.00;0.70;;;11.30;99.90;;;;;;5091378;28;20028;-67
2023/01/06 12:22:29;;;;;;;3.27;0.57;;;11.50;99.90;;;;;;5072343;28;20040;-67
2023/01/06 12:24:57;;;;;;;3.93;0.83;;;11.30;99.90;;;;;;5071937;28;20099;-67
2023/01/06 12:27:34;;;;;;;5.30;0.70;;;11.50;99.90;;;;;;5074511;28;20025;-67
2023/01/06 12:30:04;;;;;;;3.57;0.83;;;11.40;99.90;;;;;;5081929;28;20401;-67
2023/01/06 12:32:39;;;;;;;2.03;0.50;;;11.50;99.90;;;;;;5072588;28;20031;-68
2023/01/06 12:35:10;;;;;;;4.07;0.40;;;11.60;99.90;;;;;;5072633;28;20025;-68
2023/01/06 12:37:44;;;;;;;4.38;0.65;;;11.50;99.90;;;;;;5078823;28;20016;-68
2023/01/06 12:40:19;;;;;;;3.30;0.45;;;11.70;99.90;;;;;;5078417;28;20199;-67
2023/01/06 12:42:54;;;;;;;5.50;0.70;;;11.70;99.90;;;;;;5072835;28;20042;-67
2023/01/06 12:45:32;;;;;;;5.87;0.70;;;11.40;99.90;;;;;;5073303;28;20070;-68
2023/01/06 12:47:58;;;;;;;4.13;0.50;;;11.80;99.90;;;;;;5072608;28;20497;-67
2023/01/06 12:50:32;;;;;;;3.88;0.68;;;11.70;99.90;;;;;;5074219;28;20027;-68
2023/01/06 12:53:00;;;;;;;3.92;0.77;;;11.90;99.90;;;;;;5072981;28;20465;-67
2023/01/06 12:55:52;;;;;;;6.05;0.75;;;11.80;99.90;;;;;;5071732;28;20107;-67
2023/01/06 12:58:28;;;;;;;6.37;0.70;;;11.80;99.90;;;;;;5046515;28;20033;-68
2023/01/06 13:01:03;;;;;;;5.53;0.70;;;11.50;99.90;;;;;;5078844;28;20035;-68
2023/01/06 13:03:45;;;;;;;3.40;0.93;;;11.60;99.90;;;;;;5085436;28;20121;-68
2023/01/06 13:06:39;;;;;;;7.25;0.70;;;11.70;99.90;;;;;;5090397;28;20107;-67
2023/01/06 13:09:20;;;;;;;3.03;0.60;;;11.90;99.90;;;;;;5098139;28;20050;-67
2023/01/06 13:11:54;;;;;;;1.57;0.50;;;11.90;99.90;;;;;;5086543;28;20524;-67